Time;durP1;ratioP1;P1;durP2;ratioP2;P2;SDS_P1;SDS_P2;PMS_P1;PMS_P2;Temp;Humidity;BMP_temperature;BMP_pressure;BME280_temperature;BME280_humidity;BME280_pressure;Samples;Min_cycle;Max_cycle;Signal;HPM_P1;HPM_P2
2021/08/28 00:01:39;;;;;;;22.93;15.03;;;13.20;99.90;;;;;;5023486;28;20890;-69
2021/08/28 00:04:05;;;;;;;22.70;16.30;;;13.20;99.90;;;;;;5020149;28;20493;-68
2021/08/28 00:06:32;;;;;;;26.20;16.03;;;13.10;99.90;;;;;;5030182;28;20461;-69
2021/08/28 00:08:59;;;;;;;16.70;15.00;;;13.10;99.90;;;;;;5024845;28;20560;-68
2021/08/28 00:11:26;;;;;;;17.00;15.23;;;13.10;99.90;;;;;;5026454;28;20468;-69
2021/08/28 00:13:53;;;;;;;18.63;14.90;;;13.20;99.90;;;;;;5030400;28;20460;-68
2021/08/28 00:16:20;;;;;;;18.60;16.50;;;13.30;99.90;;;;;;5026943;28;21180;-69
2021/08/28 00:18:48;;;;;;;24.07;15.90;;;13.30;99.90;;;;;;5029013;28;20458;-68
2021/08/28 00:21:15;;;;;;;18.23;15.47;;;13.40;99.90;;;;;;5031432;28;20460;-70
2021/08/28 00:23:42;;;;;;;22.60;16.43;;;13.40;99.90;;;;;;5026071;28;20833;-69
2021/08/28 00:26:09;;;;;;;20.27;16.30;;;13.50;99.90;;;;;;5025583;28;20477;-70
2021/08/28 00:28:36;;;;;;;18.20;16.40;;;13.60;99.90;;;;;;5024544;27;20549;-69
2021/08/28 00:31:02;;;;;;;17.77;16.30;;;13.60;99.90;;;;;;5030059;28;21101;-70
2021/08/28 00:33:29;;;;;;;17.83;16.03;;;13.60;99.90;;;;;;5029247;28;20477;-69
2021/08/28 00:35:58;;;;;;;17.50;15.97;;;13.70;99.90;;;;;;5028585;28;20468;-70
2021/08/28 00:38:24;;;;;;;20.97;17.03;;;13.70;99.90;;;;;;5024585;28;20464;-69
2021/08/28 00:40:51;;;;;;;19.67;17.10;;;13.70;99.90;;;;;;5016399;28;20495;-68
2021/08/28 00:43:18;;;;;;;20.77;16.70;;;13.70;99.90;;;;;;5021790;28;21184;-72
2021/08/28 00:45:45;;;;;;;22.30;17.10;;;13.70;99.90;;;;;;5015760;28;20461;-69
2021/08/28 00:48:14;;;;;;;19.07;17.13;;;13.60;99.90;;;;;;5022427;28;20457;-68
2021/08/28 00:50:43;;;;;;;33.07;18.10;;;13.60;99.90;;;;;;5021580;28;20563;-68
2021/08/28 00:53:15;;;;;;;19.50;17.73;;;13.50;99.90;;;;;;5021521;28;20457;-69
2021/08/28 00:55:44;;;;;;;24.87;18.60;;;13.40;99.90;;;;;;5018783;28;20461;-68
2021/08/28 00:58:11;;;;;;;18.80;16.90;;;13.30;99.90;;;;;;5018679;28;20481;-70
2021/08/28 01:00:42;;;;;;;40.10;18.57;;;13.30;99.90;;;;;;5025593;28;20821;-71
2021/08/28 01:03:10;;;;;;;23.00;18.00;;;13.40;99.90;;;;;;5023252;28;20475;-69
2021/08/28 01:05:48;;;;;;;20.30;18.30;;;13.40;99.90;;;;;;5019345;28;20465;-71
2021/08/28 01:08:21;;;;;;;24.63;17.77;;;13.50;99.90;;;;;;5018023;28;20468;-68
2021/08/28 01:10:55;;;;;;;27.03;18.00;;;13.50;99.90;;;;;;5030563;28;20462;-71
2021/08/28 01:13:24;;;;;;;20.70;18.80;;;13.60;99.90;;;;;;5014419;28;21178;-71
2021/08/28 01:15:53;;;;;;;26.37;17.77;;;13.60;99.90;;;;;;5025702;28;20473;-71
2021/08/28 01:18:24;;;;;;;20.00;17.97;;;13.70;99.90;;;;;;5026072;28;20782;-69
2021/08/28 01:20:58;;;;;;;37.77;18.83;;;13.70;99.90;;;;;;5022201;28;21135;-69
2021/08/28 01:23:30;;;;;;;20.87;17.87;;;13.80;99.90;;;;;;5024687;28;20495;-70
2021/08/28 01:26:01;;;;;;;20.03;18.17;;;13.80;99.90;;;;;;5013284;28;20461;-69
2021/08/28 01:28:32;;;;;;;28.00;19.90;;;13.80;99.90;;;;;;5051099;27;20464;-71
2021/08/28 01:31:01;;;;;;;26.67;19.60;;;13.90;99.90;;;;;;5024207;28;20791;-69
2021/08/28 01:33:29;;;;;;;29.57;19.00;;;13.90;99.90;;;;;;5018919;28;20463;-71
2021/08/28 01:35:56;;;;;;;24.30;19.60;;;13.90;99.90;;;;;;5017888;28;20467;-69
2021/08/28 01:38:23;;;;;;;29.37;21.03;;;13.90;99.90;;;;;;5023274;28;20472;-69
2021/08/28 01:40:52;;;;;;;24.17;20.40;;;13.90;99.90;;;;;;5024198;28;20526;-69
2021/08/28 01:43:19;;;;;;;22.27;19.90;;;13.90;99.90;;;;;;5030134;28;20541;-72
2021/08/28 01:45:47;;;;;;;24.33;21.87;;;13.90;99.90;;;;;;5016526;28;21163;-69
2021/08/28 01:48:17;;;;;;;23.40;20.90;;;13.90;99.90;;;;;;5017165;28;20458;-72
2021/08/28 01:50:46;;;;;;;23.43;21.13;;;13.90;99.90;;;;;;5018784;28;20548;-70
2021/08/28 01:53:14;;;;;;;24.90;22.40;;;13.90;99.90;;;;;;5020532;28;20466;-69
2021/08/28 01:55:44;;;;;;;25.47;21.80;;;14.00;99.90;;;;;;5027463;28;20894;-69
2021/08/28 01:58:12;;;;;;;23.17;21.03;;;14.00;99.90;;;;;;5020029;28;20886;-69
2021/08/28 02:00:39;;;;;;;35.77;21.47;;;14.00;99.90;;;;;;5016559;28;20821;-70
2021/08/28 02:03:06;;;;;;;32.03;20.80;;;14.00;99.90;;;;;;5022897;28;21171;-69
2021/08/28 02:05:41;;;;;;;24.23;21.63;;;14.00;99.90;;;;;;5026429;28;20499;-69
2021/08/28 02:08:16;;;;;;;29.13;22.13;;;14.00;99.90;;;;;;5026432;28;20468;-69
2021/08/28 02:10:48;;;;;;;31.67;22.60;;;14.10;99.90;;;;;;5026837;27;20483;-72
2021/08/28 02:13:26;;;;;;;24.70;22.00;;;14.00;99.90;;;;;;5028819;28;20472;-71
2021/08/28 02:15:56;;;;;;;24.03;21.00;;;14.10;99.90;;;;;;5020950;28;20484;-71
2021/08/28 02:18:28;;;;;;;26.37;21.50;;;14.20;99.90;;;;;;5018489;28;20469;-69
2021/08/28 02:20:59;;;;;;;25.47;21.90;;;14.20;99.90;;;;;;5036509;28;20464;-69
2021/08/28 02:23:32;;;;;;;25.73;22.60;;;14.20;99.90;;;;;;5027681;28;20467;-70
2021/08/28 02:26:04;;;;;;;22.97;20.50;;;14.20;99.90;;;;;;5026008;28;20548;-70
2021/08/28 02:28:37;;;;;;;26.20;20.37;;;14.20;99.90;;;;;;5050725;27;20457;-70
2021/08/28 02:31:06;;;;;;;27.70;21.83;;;14.20;99.90;;;;;;5028711;28;20484;-72
2021/08/28 02:33:35;;;;;;;26.00;21.20;;;14.20;99.90;;;;;;5025561;28;20456;-71
2021/08/28 02:36:04;;;;;;;23.70;21.30;;;14.20;99.90;;;;;;5019411;28;20804;-70
2021/08/28 02:38:32;;;;;;;33.23;21.23;;;14.20;99.90;;;;;;5022533;28;20827;-71
2021/08/28 02:41:02;;;;;;;31.23;21.47;;;14.30;99.90;;;;;;5023494;28;21015;-70
2021/08/28 02:43:30;;;;;;;24.10;20.43;;;14.30;99.90;;;;;;5020240;28;21284;-70
2021/08/28 02:45:58;;;;;;;24.13;21.60;;;14.30;99.90;;;;;;5014922;28;20497;-70
2021/08/28 02:48:27;;;;;;;26.50;20.90;;;14.30;99.90;;;;;;5015984;28;20462;-69
2021/08/28 02:50:55;;;;;;;31.80;21.93;;;14.30;99.90;;;;;;5016952;28;20465;-71
2021/08/28 02:53:25;;;;;;;32.90;21.03;;;14.40;99.90;;;;;;5026931;28;20824;-70
2021/08/28 02:55:53;;;;;;;26.73;20.37;;;14.40;99.90;;;;;;5020919;28;21220;-71
2021/08/28 02:58:21;;;;;;;34.87;22.03;;;14.40;99.90;;;;;;5025305;28;20517;-70
2021/08/28 03:00:48;;;;;;;26.47;21.93;;;14.40;99.90;;;;;;5019648;28;21003;-71
2021/08/28 03:03:16;;;;;;;27.97;21.47;;;14.50;99.90;;;;;;5017798;28;20986;-73
2021/08/28 03:05:46;;;;;;;30.67;21.73;;;14.40;99.90;;;;;;5016668;28;20489;-70
2021/08/28 03:08:14;;;;;;;31.87;22.30;;;14.40;99.90;;;;;;5016911;28;20469;-70
2021/08/28 03:10:45;;;;;;;32.13;23.03;;;14.50;99.90;;;;;;5022417;28;20453;-70
2021/08/28 03:13:12;;;;;;;29.77;22.17;;;14.40;99.90;;;;;;5022596;28;20453;-70
2021/08/28 03:15:39;;;;;;;26.33;22.20;;;14.50;99.90;;;;;;5022762;27;20805;-70
2021/08/28 03:18:08;;;;;;;37.37;21.57;;;14.40;99.90;;;;;;5021397;28;20456;-71
2021/08/28 03:20:36;;;;;;;39.83;22.77;;;14.40;99.90;;;;;;5021265;28;20899;-72
2021/08/28 03:23:03;;;;;;;35.63;22.50;;;14.50;99.90;;;;;;5032374;28;20947;-70
2021/08/28 03:25:31;;;;;;;32.43;22.80;;;14.50;99.90;;;;;;5030551;28;20492;-70
2021/08/28 03:27:59;;;;;;;32.30;22.73;;;14.40;99.90;;;;;;5025268;28;20480;-69
2021/08/28 03:30:28;;;;;;;23.93;21.07;;;14.50;99.90;;;;;;5016189;28;20483;-70
2021/08/28 03:32:55;;;;;;;42.43;21.67;;;14.50;99.90;;;;;;5020117;28;20473;-71
2021/08/28 03:35:24;;;;;;;27.87;22.20;;;14.50;99.90;;;;;;5029618;28;20465;-73
2021/08/28 03:37:52;;;;;;;26.90;21.40;;;14.50;99.90;;;;;;5024617;28;20449;-72
2021/08/28 03:40:19;;;;;;;24.20;21.70;;;14.60;99.90;;;;;;5019342;28;20460;-70
2021/08/28 03:42:46;;;;;;;31.37;22.60;;;14.50;99.90;;;;;;5017646;28;20839;-72
2021/08/28 03:45:14;;;;;;;32.73;21.33;;;14.50;99.90;;;;;;5024868;28;20851;-72
2021/08/28 03:47:44;;;;;;;32.33;23.20;;;14.60;99.90;;;;;;5024828;28;20472;-70
2021/08/28 03:50:12;;;;;;;29.77;24.10;;;14.50;99.90;;;;;;5030634;28;20945;-72
2021/08/28 03:52:39;;;;;;;38.77;23.87;;;14.50;99.90;;;;;;5027352;28;20453;-70
2021/08/28 03:55:06;;;;;;;33.80;22.87;;;14.60;99.90;;;;;;5024573;28;20460;-72
2021/08/28 03:57:33;;;;;;;29.63;22.60;;;14.60;99.90;;;;;;5020792;28;20466;-70
2021/08/28 04:00:00;;;;;;;40.07;22.30;;;14.60;99.90;;;;;;5028830;28;20489;-71
2021/08/28 04:02:28;;;;;;;45.83;26.40;;;14.60;99.90;;;;;;5022435;28;20446;-70
2021/08/28 04:04:55;;;;;;;23.87;21.33;;;14.60;99.90;;;;;;5015829;28;21126;-70
2021/08/28 04:07:22;;;;;;;25.07;22.57;;;14.60;99.90;;;;;;5016132;28;20472;-70
2021/08/28 04:09:49;;;;;;;24.40;21.80;;;14.60;99.90;;;;;;5019115;28;20460;-70
2021/08/28 04:12:16;;;;;;;27.40;21.80;;;14.60;99.90;;;;;;5022205;28;20501;-70
2021/08/28 04:14:43;;;;;;;25.07;22.10;;;14.70;99.90;;;;;;5027350;28;20951;-73
2021/08/28 04:17:10;;;;;;;26.00;21.67;;;14.70;99.90;;;;;;5017206;28;20840;-72
2021/08/28 04:19:38;;;;;;;23.77;20.27;;;14.60;99.90;;;;;;5019580;28;20468;-70
2021/08/28 04:22:05;;;;;;;24.17;21.90;;;14.70;99.90;;;;;;5020941;28;20460;-70
2021/08/28 04:24:32;;;;;;;26.03;21.80;;;14.60;99.90;;;;;;5019036;28;20489;-70
2021/08/28 04:27:00;;;;;;;27.73;23.23;;;14.70;99.90;;;;;;5024939;28;20449;-70
2021/08/28 04:29:27;;;;;;;25.60;22.93;;;14.60;99.90;;;;;;5032338;27;20515;-70
2021/08/28 04:31:53;;;;;;;30.67;23.60;;;14.60;99.90;;;;;;5019422;28;20462;-72
2021/08/28 04:34:20;;;;;;;27.90;23.00;;;14.60;99.90;;;;;;5023465;28;20483;-71
2021/08/28 04:36:48;;;;;;;35.13;23.90;;;14.60;99.90;;;;;;5027931;28;20447;-70
2021/08/28 04:39:16;;;;;;;30.07;22.87;;;14.60;99.90;;;;;;5024301;28;20815;-72
2021/08/28 04:41:43;;;;;;;30.50;23.20;;;14.60;99.90;;;;;;5019185;28;20826;-71
2021/08/28 04:44:10;;;;;;;37.63;24.00;;;14.60;99.90;;;;;;5024900;28;20457;-70
2021/08/28 04:46:36;;;;;;;34.63;23.73;;;14.70;99.90;;;;;;5022180;28;20485;-72
2021/08/28 04:49:03;;;;;;;38.43;23.77;;;14.50;99.90;;;;;;5025060;28;20445;-72
2021/08/28 04:51:30;;;;;;;43.83;24.27;;;14.60;99.90;;;;;;5022426;28;20461;-71
2021/08/28 04:53:58;;;;;;;46.10;24.97;;;14.60;99.90;;;;;;5020713;28;20469;-70
2021/08/28 04:56:26;;;;;;;30.47;24.60;;;14.70;99.90;;;;;;5021093;28;20462;-72
2021/08/28 04:58:52;;;;;;;31.33;25.43;;;14.70;99.90;;;;;;5022102;27;20477;-70
2021/08/28 05:01:19;;;;;;;31.43;25.10;;;14.70;99.90;;;;;;5027554;28;20458;-70
2021/08/28 05:03:46;;;;;;;30.53;24.47;;;14.70;99.90;;;;;;5015251;28;20457;-70
2021/08/28 05:06:13;;;;;;;31.53;23.03;;;14.70;99.90;;;;;;5028412;28;20484;-71
2021/08/28 05:08:40;;;;;;;38.97;23.57;;;14.70;99.90;;;;;;5019516;28;20473;-70
2021/08/28 05:11:08;;;;;;;48.17;24.53;;;14.70;99.90;;;;;;5026243;28;20946;-73
2021/08/28 05:13:35;;;;;;;30.47;23.07;;;14.70;99.90;;;;;;5015898;28;20468;-72
2021/08/28 05:16:02;;;;;;;39.67;24.40;;;14.80;99.90;;;;;;5025889;28;20495;-70
2021/08/28 05:18:28;;;;;;;28.80;23.83;;;14.70;99.90;;;;;;5022923;28;20493;-70
2021/08/28 05:20:56;;;;;;;41.00;24.57;;;14.70;99.90;;;;;;5015334;28;20453;-71
2021/08/28 05:23:23;;;;;;;39.77;27.60;;;14.70;99.90;;;;;;5017114;28;20462;-70
2021/08/28 05:25:50;;;;;;;35.00;27.87;;;14.60;99.90;;;;;;5028457;28;20481;-69
2021/08/28 05:28:18;;;;;;;36.33;31.13;;;14.60;99.90;;;;;;5050094;27;20456;-71
2021/08/28 05:30:46;;;;;;;38.13;32.43;;;14.60;99.90;;;;;;5020489;28;20971;-69
2021/08/28 05:33:14;;;;;;;39.97;32.37;;;14.60;99.90;;;;;;5025198;28;20479;-70
2021/08/28 05:35:41;;;;;;;59.97;31.73;;;14.60;99.90;;;;;;5014161;28;20462;-70
2021/08/28 05:38:08;;;;;;;37.40;31.03;;;14.60;99.90;;;;;;5012385;28;20499;-72
2021/08/28 05:40:36;;;;;;;34.87;29.77;;;14.50;99.90;;;;;;5022234;28;20540;-71
2021/08/28 05:43:04;;;;;;;31.73;28.40;;;14.50;99.90;;;;;;5018051;28;20548;-70
2021/08/28 05:45:32;;;;;;;29.03;26.33;;;14.50;99.90;;;;;;5019157;28;20974;-70
2021/08/28 05:47:59;;;;;;;49.27;28.33;;;14.50;99.90;;;;;;5016822;28;20461;-71
2021/08/28 05:50:26;;;;;;;26.37;24.10;;;14.50;99.90;;;;;;5018328;28;20484;-71
2021/08/28 05:52:53;;;;;;;26.97;24.87;;;14.50;99.90;;;;;;5015188;28;20928;-70
2021/08/28 05:55:21;;;;;;;27.03;24.00;;;14.50;99.90;;;;;;5023925;28;20542;-71
2021/08/28 05:57:48;;;;;;;27.43;25.00;;;14.50;99.90;;;;;;5019673;28;20469;-71
2021/08/28 06:00:15;;;;;;;28.53;25.83;;;14.60;99.90;;;;;;5021302;28;20482;-70
2021/08/28 06:02:44;;;;;;;27.87;25.10;;;14.70;99.90;;;;;;5020310;28;20456;-70
2021/08/28 06:05:13;;;;;;;37.13;24.37;;;14.80;99.90;;;;;;5016242;28;20489;-73
2021/08/28 06:07:41;;;;;;;26.03;23.57;;;14.90;99.90;;;;;;5018195;28;20452;-73
2021/08/28 06:10:11;;;;;;;26.93;24.50;;;14.90;99.90;;;;;;5030608;28;20461;-71
2021/08/28 06:12:38;;;;;;;26.30;23.80;;;14.90;99.90;;;;;;5021688;28;20879;-72
2021/08/28 06:15:06;;;;;;;27.57;24.90;;;15.00;99.90;;;;;;5019995;28;20459;-70
2021/08/28 06:17:33;;;;;;;27.90;25.20;;;15.00;99.90;;;;;;5024464;28;20489;-71
2021/08/28 06:20:02;;;;;;;26.57;24.20;;;15.10;99.90;;;;;;5027046;28;20465;-71
2021/08/28 06:22:30;;;;;;;26.10;23.67;;;15.10;99.90;;;;;;5022025;28;20465;-70
2021/08/28 06:24:57;;;;;;;26.90;24.23;;;15.10;99.90;;;;;;5012247;28;20457;-72
2021/08/28 06:27:25;;;;;;;25.90;23.30;;;15.10;99.90;;;;;;5020760;28;20514;-70
2021/08/28 06:29:52;;;;;;;29.00;24.20;;;15.20;99.90;;;;;;5023581;28;20465;-70
2021/08/28 06:32:20;;;;;;;30.10;23.43;;;15.30;99.90;;;;;;5019719;28;20456;-71
2021/08/28 06:34:47;;;;;;;29.73;23.90;;;15.40;99.90;;;;;;5020099;28;20456;-70
2021/08/28 06:37:15;;;;;;;33.17;24.30;;;15.40;99.90;;;;;;5016092;28;20453;-72
2021/08/28 06:39:42;;;;;;;25.60;23.10;;;15.40;99.90;;;;;;5012606;28;20466;-71
2021/08/28 06:42:10;;;;;;;29.60;21.53;;;15.40;99.90;;;;;;5020948;28;20572;-70
2021/08/28 06:44:39;;;;;;;25.00;22.40;;;15.40;99.90;;;;;;5016161;28;21210;-70
2021/08/28 06:47:07;;;;;;;26.17;23.50;;;15.40;99.90;;;;;;5011146;28;20940;-70
2021/08/28 06:49:34;;;;;;;26.07;23.40;;;15.60;99.90;;;;;;5003763;28;20568;-72
2021/08/28 06:52:01;;;;;;;25.47;22.50;;;15.70;99.90;;;;;;5014563;28;20465;-71
2021/08/28 06:54:29;;;;;;;23.20;20.73;;;15.90;99.90;;;;;;5012608;28;21148;-70
2021/08/28 06:56:56;;;;;;;23.33;21.10;;;15.90;99.90;;;;;;5010190;28;20477;-69
2021/08/28 06:59:23;;;;;;;26.83;23.13;;;16.00;99.90;;;;;;5017886;28;20472;-71
2021/08/28 07:01:50;;;;;;;23.87;21.70;;;16.10;99.90;;;;;;5012352;28;20453;-71
2021/08/28 07:04:18;;;;;;;30.63;21.30;;;15.90;99.90;;;;;;5011720;28;20465;-70
2021/08/28 07:06:46;;;;;;;35.77;22.03;;;15.80;99.90;;;;;;5013042;28;20496;-70
2021/08/28 07:09:13;;;;;;;25.13;23.03;;;16.00;99.90;;;;;;5008636;28;20468;-69
2021/08/28 07:11:41;;;;;;;24.70;20.80;;;16.00;99.90;;;;;;5019236;28;20461;-69
2021/08/28 07:14:08;;;;;;;22.30;20.00;;;16.00;99.90;;;;;;5016015;28;20453;-70
2021/08/28 07:16:35;;;;;;;22.30;20.10;;;16.00;99.90;;;;;;5012737;28;20493;-72
2021/08/28 07:19:03;;;;;;;20.67;18.67;;;16.00;99.90;;;;;;5012130;28;20469;-70
2021/08/28 07:21:30;;;;;;;22.53;20.47;;;16.10;99.90;;;;;;5015411;28;20784;-71
2021/08/28 07:23:57;;;;;;;25.20;20.77;;;16.10;99.90;;;;;;5026004;28;20460;-71
2021/08/28 07:26:25;;;;;;;20.37;18.70;;;16.20;99.90;;;;;;5021109;28;20493;-70
2021/08/28 07:28:53;;;;;;;22.60;20.80;;;16.40;99.90;;;;;;5017463;27;20456;-70
2021/08/28 07:31:20;;;;;;;21.30;19.47;;;16.40;99.90;;;;;;5010194;28;20939;-70
2021/08/28 07:33:48;;;;;;;21.37;19.67;;;16.50;99.90;;;;;;5015007;28;20457;-70
2021/08/28 07:36:16;;;;;;;21.40;19.50;;;16.50;99.90;;;;;;5031204;28;20467;-70
2021/08/28 07:38:43;;;;;;;20.47;18.60;;;16.70;99.90;;;;;;5021248;28;20540;-70
2021/08/28 07:41:11;;;;;;;19.87;17.97;;;16.70;99.90;;;;;;5016663;28;20976;-70
2021/08/28 07:43:39;;;;;;;20.40;18.70;;;16.70;99.90;;;;;;5013908;28;20793;-72
2021/08/28 07:46:07;;;;;;;21.33;19.33;;;16.90;99.90;;;;;;5011455;28;20489;-71
2021/08/28 07:48:34;;;;;;;20.13;18.30;;;16.90;99.90;;;;;;5016655;28;20958;-70
2021/08/28 07:51:02;;;;;;;22.07;18.90;;;16.90;99.90;;;;;;5019255;27;20799;-70
2021/08/28 07:53:29;;;;;;;19.67;18.17;;;16.90;99.90;;;;;;5013080;28;20465;-71
2021/08/28 07:55:56;;;;;;;19.93;17.97;;;17.10;99.90;;;;;;5012746;28;20468;-70
2021/08/28 07:58:23;;;;;;;19.27;17.33;;;17.30;99.90;;;;;;5014908;28;20502;-71
2021/08/28 08:00:50;;;;;;;18.27;16.90;;;17.40;99.90;;;;;;5012232;28;20477;-70
2021/08/28 08:03:19;;;;;;;21.07;18.90;;;17.40;99.90;;;;;;5013446;28;20466;-72
2021/08/28 08:05:46;;;;;;;18.93;17.37;;;17.30;99.90;;;;;;5007906;28;20488;-72
2021/08/28 08:08:13;;;;;;;17.90;16.50;;;17.40;99.90;;;;;;5013177;28;20473;-72
2021/08/28 08:10:39;;;;;;;18.63;16.77;;;17.30;99.90;;;;;;5016714;28;20479;-70
2021/08/28 08:13:06;;;;;;;19.67;17.87;;;17.10;99.90;;;;;;5013723;28;20975;-70
2021/08/28 08:15:33;;;;;;;19.33;17.63;;;17.10;99.90;;;;;;5009239;28;20457;-71
2021/08/28 08:18:00;;;;;;;19.63;17.93;;;17.20;99.90;;;;;;5011121;28;20465;-69
2021/08/28 08:20:28;;;;;;;18.03;16.63;;;17.40;99.90;;;;;;5020653;28;20525;-72
2021/08/28 08:22:55;;;;;;;18.50;17.13;;;17.60;99.90;;;;;;5017354;28;20450;-70
2021/08/28 08:25:23;;;;;;;18.63;17.33;;;17.50;99.90;;;;;;5017825;28;20532;-72
2021/08/28 08:27:50;;;;;;;18.80;17.00;;;17.50;99.90;;;;;;5021284;27;20461;-70
2021/08/28 08:30:17;;;;;;;18.63;17.23;;;17.60;99.90;;;;;;5015243;28;20813;-70
2021/08/28 08:32:44;;;;;;;17.90;16.60;;;17.50;99.90;;;;;;5013579;28;20838;-70
2021/08/28 08:35:12;;;;;;;17.50;16.13;;;17.40;99.90;;;;;;5014987;28;20960;-71
2021/08/28 08:37:41;;;;;;;18.57;16.80;;;17.40;99.90;;;;;;5016337;28;20518;-70
2021/08/28 08:40:09;;;;;;;17.90;16.40;;;17.50;99.90;;;;;;5016262;28;20899;-70
2021/08/28 08:42:37;;;;;;;18.43;16.50;;;17.70;99.90;;;;;;5013925;28;20453;-70
2021/08/28 08:45:05;;;;;;;19.17;17.77;;;18.00;99.90;;;;;;5017680;28;20502;-70
2021/08/28 08:47:33;;;;;;;19.23;17.73;;;18.20;99.90;;;;;;5021779;28;20519;-70
2021/08/28 08:50:02;;;;;;;18.33;17.13;;;18.40;99.90;;;;;;5014138;28;20465;-70
2021/08/28 08:52:31;;;;;;;18.43;17.00;;;18.50;99.90;;;;;;5015968;28;20562;-70
2021/08/28 08:55:00;;;;;;;22.43;16.57;;;19.00;99.90;;;;;;5010229;28;20457;-70
2021/08/28 08:57:28;;;;;;;20.30;18.60;;;19.00;99.90;;;;;;5022243;28;20461;-71
2021/08/28 08:59:55;;;;;;;19.93;18.13;;;18.40;99.90;;;;;;5027128;28;20490;-69
2021/08/28 09:02:22;;;;;;;18.30;16.97;;;17.80;99.90;;;;;;5033589;28;20463;-71
2021/08/28 09:04:50;;;;;;;17.83;16.57;;;17.40;99.90;;;;;;5019592;28;20460;-71
2021/08/28 09:07:18;;;;;;;16.63;15.33;;;17.20;99.90;;;;;;5019193;28;20994;-72
2021/08/28 09:09:46;;;;;;;16.77;15.27;;;17.20;99.90;;;;;;5020856;28;20464;-70
2021/08/28 09:12:14;;;;;;;16.37;15.07;;;17.20;99.90;;;;;;5021363;28;20470;-70
2021/08/28 09:14:42;;;;;;;18.00;16.60;;;17.30;99.90;;;;;;5018402;28;20595;-69
2021/08/28 09:17:17;;;;;;;17.80;16.00;;;17.50;99.90;;;;;;5035284;28;20522;-72
2021/08/28 09:19:48;;;;;;;18.00;16.63;;;17.70;99.90;;;;;;5020921;28;20477;-70
2021/08/28 09:22:24;;;;;;;18.20;16.73;;;18.20;99.90;;;;;;5019230;28;20552;-70
2021/08/28 09:24:55;;;;;;;17.00;15.70;;;18.80;99.90;;;;;;5012578;28;20457;-71
2021/08/28 09:27:45;;;;;;;16.97;15.77;;;19.20;99.90;;;;;;5028304;28;20847;-70
2021/08/28 09:30:20;;;;;;;17.30;16.20;;;20.00;99.90;;;;;;5022293;28;20461;-70
2021/08/28 09:32:49;;;;;;;17.57;16.23;;;19.90;99.90;;;;;;5021586;28;20463;-70
2021/08/28 09:35:18;;;;;;;18.20;17.10;;;19.90;99.90;;;;;;5025328;28;20541;-70
2021/08/28 09:37:53;;;;;;;17.50;16.40;;;19.60;99.90;;;;;;5029181;28;20463;-70
2021/08/28 09:40:25;;;;;;;17.53;16.43;;;19.50;99.90;;;;;;5024586;28;20471;-71
2021/08/28 09:43:02;;;;;;;18.27;17.03;;;19.60;99.90;;;;;;5018704;28;20656;-71
2021/08/28 09:45:29;;;;;;;18.37;17.00;;;19.60;99.90;;;;;;5019536;28;20938;-71
2021/08/28 09:47:58;;;;;;;18.60;17.40;;;19.50;99.90;;;;;;5011178;28;20492;-71
2021/08/28 09:50:31;;;;;;;16.87;15.77;;;20.10;99.90;;;;;;5028495;28;20540;-72
2021/08/28 09:53:04;;;;;;;17.40;16.30;;;20.70;99.90;;;;;;5026405;28;20457;-73
2021/08/28 09:55:33;;;;;;;18.30;17.20;;;21.10;99.90;;;;;;5016905;28;20457;-72
2021/08/28 09:58:04;;;;;;;18.20;16.83;;;20.50;99.90;;;;;;5015170;28;20465;-71
2021/08/28 10:00:32;;;;;;;20.00;18.53;;;19.70;99.90;;;;;;5018603;27;20457;-68
2021/08/28 10:03:02;;;;;;;25.40;23.10;;;18.70;99.90;;;;;;5011565;28;20464;-69
2021/08/28 10:05:30;;;;;;;25.03;22.53;;;17.90;99.90;;;;;;5022779;28;20801;-72
2021/08/28 10:07:59;;;;;;;22.43;20.73;;;17.40;99.90;;;;;;5020838;28;20492;-70
2021/08/28 10:10:27;;;;;;;22.40;20.87;;;17.10;99.90;;;;;;5014656;28;20453;-71
2021/08/28 10:12:55;;;;;;;24.93;22.87;;;16.90;99.90;;;;;;5015636;28;20457;-70
2021/08/28 10:15:24;;;;;;;22.43;20.77;;;17.10;99.90;;;;;;5015411;28;20489;-70
2021/08/28 10:17:52;;;;;;;23.33;21.63;;;17.30;99.90;;;;;;5014618;28;20461;-70
2021/08/28 10:20:20;;;;;;;23.60;21.90;;;17.40;99.90;;;;;;5010712;28;20910;-71
2021/08/28 10:22:54;;;;;;;24.50;22.60;;;17.40;99.90;;;;;;5012801;28;20503;-71
2021/08/28 10:25:23;;;;;;;22.30;20.60;;;17.50;99.90;;;;;;5023342;28;20560;-71
2021/08/28 10:27:52;;;;;;;22.77;21.07;;;17.60;99.90;;;;;;5028989;27;20489;-73
2021/08/28 10:30:20;;;;;;;24.37;22.37;;;17.40;99.90;;;;;;5016909;28;20463;-71
2021/08/28 10:32:50;;;;;;;24.70;22.70;;;17.40;99.90;;;;;;5016389;28;20456;-69
2021/08/28 10:35:19;;;;;;;25.40;23.30;;;17.30;99.90;;;;;;5029674;28;20468;-72
2021/08/28 10:37:47;;;;;;;25.10;22.40;;;17.30;99.90;;;;;;5023519;28;20472;-70
2021/08/28 10:40:18;;;;;;;25.70;23.70;;;17.20;99.90;;;;;;5017472;28;20461;-69
2021/08/28 10:42:48;;;;;;;26.57;23.77;;;17.20;99.90;;;;;;5018294;28;20464;-69
2021/08/28 10:45:16;;;;;;;24.30;22.47;;;17.20;99.90;;;;;;5024702;28;20563;-73
2021/08/28 10:47:46;;;;;;;23.40;21.50;;;17.20;99.90;;;;;;5018153;28;20516;-69
2021/08/28 10:50:16;;;;;;;21.33;19.40;;;17.60;99.90;;;;;;5025377;28;20517;-72
2021/08/28 10:52:50;;;;;;;21.17;19.47;;;18.20;99.90;;;;;;5029352;28;20456;-69
2021/08/28 10:55:18;;;;;;;22.80;21.03;;;18.30;99.90;;;;;;5016337;28;20448;-69
2021/08/28 10:57:45;;;;;;;26.47;23.80;;;18.40;99.90;;;;;;5018595;28;20993;-70
2021/08/28 11:00:14;;;;;;;24.50;22.60;;;18.30;99.90;;;;;;5025426;28;20477;-72
2021/08/28 11:02:55;;;;;;;23.67;21.63;;;17.70;99.90;;;;;;5022677;28;20517;-72
2021/08/28 11:05:26;;;;;;;23.33;21.40;;;17.40;99.90;;;;;;5025092;28;20525;-70
2021/08/28 11:07:55;;;;;;;23.97;22.00;;;17.30;99.90;;;;;;5021890;28;20494;-72
2021/08/28 11:10:25;;;;;;;24.70;22.40;;;17.10;99.90;;;;;;5017293;28;20543;-69
2021/08/28 11:12:55;;;;;;;22.77;20.90;;;17.10;99.90;;;;;;5016038;28;20454;-69
2021/08/28 11:15:53;;;;;;;21.63;19.57;;;17.20;99.90;;;;;;5014024;28;20777;-72
2021/08/28 11:18:45;;;;;;;19.43;17.83;;;17.70;99.90;;;;;;5005441;28;20464;-70
2021/08/28 11:21:15;;;;;;;17.53;15.93;;;17.70;99.90;;;;;;5025165;28;20536;-69
2021/08/28 11:23:47;;;;;;;16.90;15.43;;;17.60;99.90;;;;;;5021195;28;20536;-70
2021/08/28 11:26:33;;;;;;;17.00;15.40;;;17.90;99.90;;;;;;5020608;28;20987;-70
2021/08/28 11:29:19;;;;;;;16.63;15.43;;;18.40;99.90;;;;;;5013860;28;20457;-70
2021/08/28 11:31:47;;;;;;;18.23;16.83;;;19.00;99.90;;;;;;5022690;28;20929;-70
2021/08/28 11:34:28;;;;;;;17.40;16.10;;;19.40;99.90;;;;;;5020448;28;20469;-69
2021/08/28 11:37:44;;;;;;;16.47;15.37;;;19.70;99.90;;;;;;5019144;28;20476;-69
2021/08/28 11:40:32;;;;;;;17.40;16.30;;;20.80;99.90;;;;;;5022785;28;20452;-70
2021/08/28 11:42:59;;;;;;;16.60;15.60;;;20.90;99.90;;;;;;5016033;28;20461;-70
2021/08/28 11:45:32;;;;;;;17.07;16.17;;;21.30;99.90;;;;;;5017598;28;20469;-71
2021/08/28 11:48:00;;;;;;;18.70;17.20;;;20.90;99.90;;;;;;5012681;28;20490;-69
2021/08/28 11:50:32;;;;;;;18.33;17.23;;;21.00;99.90;;;;;;5019562;28;20457;-69
2021/08/28 11:53:01;;;;;;;17.23;16.13;;;21.10;99.90;;;;;;5017902;28;20461;-70
2021/08/28 11:55:33;;;;;;;20.07;18.67;;;21.30;99.90;;;;;;5021433;28;20452;-69
2021/08/28 11:58:05;;;;;;;19.00;17.70;;;21.10;99.90;;;;;;5021380;28;20836;-69
2021/08/28 12:00:33;;;;;;;18.67;17.57;;;20.90;99.90;;;;;;5020120;28;20471;-69
2021/08/28 12:03:04;;;;;;;18.57;17.40;;;21.40;99.90;;;;;;5011981;28;20461;-72
2021/08/28 12:05:32;;;;;;;19.17;17.47;;;21.60;99.90;;;;;;5019638;28;21016;-69
2021/08/28 12:08:00;;;;;;;18.57;17.13;;;21.60;99.90;;;;;;5019728;28;20492;-69
2021/08/28 12:10:28;;;;;;;17.90;16.90;;;21.60;99.90;;;;;;5016380;28;20499;-70
2021/08/28 12:12:57;;;;;;;16.80;15.70;;;21.40;99.90;;;;;;5027595;28;20498;-70
2021/08/28 12:15:24;;;;;;;17.20;16.07;;;21.80;99.90;;;;;;5021326;28;20461;-68
2021/08/28 12:17:52;;;;;;;18.13;16.53;;;22.00;99.90;;;;;;5021421;28;20452;-69
2021/08/28 12:20:26;;;;;;;16.50;15.60;;;22.00;99.90;;;;;;5020863;28;20462;-72
2021/08/28 12:22:53;;;;;;;16.97;15.77;;;22.20;99.90;;;;;;5024072;28;20558;-69
2021/08/28 12:25:23;;;;;;;16.47;15.57;;;22.60;99.90;;;;;;5028919;28;20463;-70
2021/08/28 12:27:53;;;;;;;17.20;15.90;;;23.20;99.90;;;;;;5028720;28;20547;-70
2021/08/28 12:30:22;;;;;;;16.47;15.57;;;23.60;99.90;;;;;;5025063;28;20467;-72
2021/08/28 12:32:50;;;;;;;15.67;14.87;;;23.80;99.90;;;;;;5027953;28;20450;-72
2021/08/28 12:35:17;;;;;;;15.20;14.50;;;23.50;99.90;;;;;;5014671;28;20452;-71
2021/08/28 12:37:44;;;;;;;16.93;15.77;;;23.30;99.90;;;;;;5021663;28;20647;-71